sensor_id;sensor_type;location;lat;lon;timestamp;P1;durP1;ratioP1;P2;durP2;ratioP2
67548;SDS011;54382;53.524;49.326;2022-09-09T00:00:48;10.18;;;2.08;;
67548;SDS011;54382;53.524;49.326;2022-09-09T00:03:26;2.33;;;1.45;;
67548;SDS011;54382;53.524;49.326;2022-09-09T00:08:58;5.43;;;1.83;;
67548;SDS011;54382;53.524;49.326;2022-09-09T00:14:25;3.87;;;1.70;;
67548;SDS011;54382;53.524;49.326;2022-09-09T00:17:12;4.40;;;1.50;;
67548;SDS011;54382;53.524;49.326;2022-09-09T00:19:58;3.83;;;1.60;;
67548;SDS011;54382;53.524;49.326;2022-09-09T00:22:42;5.55;;;1.90;;
67548;SDS011;54382;53.524;49.326;2022-09-09T00:25:34;5.57;;;1.92;;
67548;SDS011;54382;53.524;49.326;2022-09-09T00:28:26;5.20;;;1.70;;
67548;SDS011;54382;53.524;49.326;2022-09-09T00:31:13;3.90;;;1.75;;
67548;SDS011;54382;53.524;49.326;2022-09-09T00:34:00;2.78;;;1.58;;
67548;SDS011;54382;53.524;49.326;2022-09-09T00:36:38;6.22;;;1.75;;
67548;SDS011;54382;53.524;49.326;2022-09-09T00:39:08;6.40;;;2.12;;
67548;SDS011;54382;53.524;49.326;2022-09-09T00:45:11;6.55;;;1.90;;
67548;SDS011;54382;53.524;49.326;2022-09-09T00:48:10;5.30;;;1.98;;
67548;SDS011;54382;53.524;49.326;2022-09-09T00:50:49;7.68;;;1.60;;
67548;SDS011;54382;53.524;49.326;2022-09-09T00:53:39;3.28;;;1.48;;
67548;SDS011;54382;53.524;49.326;2022-09-09T00:56:34;5.05;;;2.00;;
67548;SDS011;54382;53.524;49.326;2022-09-09T00:59:21;5.05;;;1.70;;
67548;SDS011;54382;53.524;49.326;2022-09-09T01:02:29;5.57;;;1.70;;
67548;SDS011;54382;53.524;49.326;2022-09-09T01:05:07;5.00;;;1.67;;
67548;SDS011;54382;53.524;49.326;2022-09-09T01:08:23;3.12;;;1.60;;
67548;SDS011;54382;53.524;49.326;2022-09-09T01:11:10;4.10;;;1.98;;
67548;SDS011;54382;53.524;49.326;2022-09-09T01:13:47;4.35;;;1.70;;
67548;SDS011;54382;53.524;49.326;2022-09-09T01:16:24;5.32;;;1.60;;
67548;SDS011;54382;53.524;49.326;2022-09-09T01:18:53;3.28;;;1.77;;
67548;SDS011;54382;53.524;49.326;2022-09-09T01:21:25;2.40;;;1.58;;
67548;SDS011;54382;53.524;49.326;2022-09-09T01:27:46;10.02;;;2.58;;
67548;SDS011;54382;53.524;49.326;2022-09-09T01:30:16;10.77;;;2.62;;
67548;SDS011;54382;53.524;49.326;2022-09-09T01:32:45;5.10;;;2.00;;
67548;SDS011;54382;53.524;49.326;2022-09-09T01:38:12;3.80;;;1.90;;
67548;SDS011;54382;53.524;49.326;2022-09-09T01:40:40;10.10;;;2.35;;
67548;SDS011;54382;53.524;49.326;2022-09-09T01:43:07;3.10;;;2.25;;
67548;SDS011;54382;53.524;49.326;2022-09-09T01:45:33;4.80;;;2.70;;
67548;SDS011;54382;53.524;49.326;2022-09-09T01:48:00;4.78;;;2.28;;
67548;SDS011;54382;53.524;49.326;2022-09-09T01:50:28;6.50;;;2.37;;
67548;SDS011;54382;53.524;49.326;2022-09-09T01:52:57;6.37;;;2.15;;
67548;SDS011;54382;53.524;49.326;2022-09-09T01:55:33;4.57;;;2.30;;
67548;SDS011;54382;53.524;49.326;2022-09-09T02:04:52;15.40;;;3.30;;
67548;SDS011;54382;53.524;49.326;2022-09-09T02:07:23;7.87;;;2.60;;
67548;SDS011;54382;53.524;49.326;2022-09-09T02:12:43;4.78;;;2.22;;
67548;SDS011;54382;53.524;49.326;2022-09-09T02:15:27;6.28;;;2.30;;
67548;SDS011;54382;53.524;49.326;2022-09-09T02:18:25;4.28;;;2.42;;
67548;SDS011;54382;53.524;49.326;2022-09-09T02:20:58;5.15;;;2.58;;
67548;SDS011;54382;53.524;49.326;2022-09-09T02:23:26;9.35;;;3.10;;
67548;SDS011;54382;53.524;49.326;2022-09-09T02:25:54;4.87;;;2.75;;
67548;SDS011;54382;53.524;49.326;2022-09-09T02:28:24;7.57;;;3.08;;
67548;SDS011;54382;53.524;49.326;2022-09-09T02:30:54;4.50;;;2.42;;
67548;SDS011;54382;53.524;49.326;2022-09-09T02:33:25;6.75;;;2.37;;
67548;SDS011;54382;53.524;49.326;2022-09-09T02:36:07;9.98;;;3.15;;
67548;SDS011;54382;53.524;49.326;2022-09-09T02:38:38;4.43;;;2.33;;
67548;SDS011;54382;53.524;49.326;2022-09-09T02:41:19;6.65;;;2.83;;
67548;SDS011;54382;53.524;49.326;2022-09-09T02:43:51;5.30;;;2.65;;
67548;SDS011;54382;53.524;49.326;2022-09-09T02:52:47;11.33;;;3.00;;
67548;SDS011;54382;53.524;49.326;2022-09-09T02:55:41;7.97;;;2.92;;
67548;SDS011;54382;53.524;49.326;2022-09-09T02:58:15;8.90;;;2.78;;
67548;SDS011;54382;53.524;49.326;2022-09-09T03:00:45;9.90;;;2.80;;
67548;SDS011;54382;53.524;49.326;2022-09-09T03:03:14;5.68;;;2.60;;
67548;SDS011;54382;53.524;49.326;2022-09-09T03:05:43;5.35;;;2.83;;
67548;SDS011;54382;53.524;49.326;2022-09-09T03:08:11;8.88;;;3.00;;
67548;SDS011;54382;53.524;49.326;2022-09-09T03:10:38;7.57;;;2.90;;
67548;SDS011;54382;53.524;49.326;2022-09-09T03:13:05;7.22;;;3.00;;
67548;SDS011;54382;53.524;49.326;2022-09-09T03:15:33;12.50;;;3.45;;
67548;SDS011;54382;53.524;49.326;2022-09-09T03:18:01;7.55;;;3.42;;
67548;SDS011;54382;53.524;49.326;2022-09-09T03:20:28;8.55;;;3.17;;
67548;SDS011;54382;53.524;49.326;2022-09-09T03:22:56;13.23;;;3.50;;
67548;SDS011;54382;53.524;49.326;2022-09-09T03:25:23;8.30;;;3.47;;
67548;SDS011;54382;53.524;49.326;2022-09-09T03:27:51;7.55;;;3.22;;
67548;SDS011;54382;53.524;49.326;2022-09-09T03:30:23;8.70;;;3.22;;
67548;SDS011;54382;53.524;49.326;2022-09-09T03:32:52;15.05;;;3.67;;
67548;SDS011;54382;53.524;49.326;2022-09-09T03:35:20;7.62;;;3.10;;
67548;SDS011;54382;53.524;49.326;2022-09-09T03:37:47;8.32;;;3.62;;
67548;SDS011;54382;53.524;49.326;2022-09-09T03:40:13;7.12;;;2.95;;
67548;SDS011;54382;53.524;49.326;2022-09-09T03:42:40;4.68;;;2.97;;
67548;SDS011;54382;53.524;49.326;2022-09-09T03:45:08;9.10;;;3.58;;
67548;SDS011;54382;53.524;49.326;2022-09-09T03:47:36;18.05;;;4.22;;
67548;SDS011;54382;53.524;49.326;2022-09-09T03:50:03;21.30;;;5.15;;
67548;SDS011;54382;53.524;49.326;2022-09-09T03:52:37;10.27;;;3.70;;
67548;SDS011;54382;53.524;49.326;2022-09-09T03:55:05;6.22;;;3.50;;
67548;SDS011;54382;53.524;49.326;2022-09-09T03:57:34;6.68;;;3.42;;
67548;SDS011;54382;53.524;49.326;2022-09-09T04:00:04;7.87;;;3.70;;
67548;SDS011;54382;53.524;49.326;2022-09-09T04:02:33;10.27;;;4.07;;
67548;SDS011;54382;53.524;49.326;2022-09-09T04:04:59;12.35;;;4.05;;
67548;SDS011;54382;53.524;49.326;2022-09-09T04:07:26;14.23;;;4.12;;
67548;SDS011;54382;53.524;49.326;2022-09-09T04:09:53;8.82;;;3.20;;
67548;SDS011;54382;53.524;49.326;2022-09-09T04:12:20;25.20;;;5.37;;
67548;SDS011;54382;53.524;49.326;2022-09-09T04:14:47;10.35;;;3.58;;
67548;SDS011;54382;53.524;49.326;2022-09-09T04:17:14;14.75;;;3.87;;
67548;SDS011;54382;53.524;49.326;2022-09-09T04:19:41;8.35;;;3.90;;
67548;SDS011;54382;53.524;49.326;2022-09-09T04:22:07;10.35;;;3.92;;
67548;SDS011;54382;53.524;49.326;2022-09-09T04:24:34;20.85;;;4.78;;
67548;SDS011;54382;53.524;49.326;2022-09-09T04:27:01;23.27;;;5.80;;
67548;SDS011;54382;53.524;49.326;2022-09-09T04:29:27;11.75;;;4.18;;
67548;SDS011;54382;53.524;49.326;2022-09-09T04:31:54;7.90;;;3.30;;
67548;SDS011;54382;53.524;49.326;2022-09-09T04:34:21;10.80;;;3.83;;
67548;SDS011;54382;53.524;49.326;2022-09-09T04:36:47;11.95;;;3.67;;
67548;SDS011;54382;53.524;49.326;2022-09-09T04:39:14;12.07;;;3.55;;
67548;SDS011;54382;53.524;49.326;2022-09-09T04:41:40;12.32;;;3.45;;
67548;SDS011;54382;53.524;49.326;2022-09-09T04:44:07;10.40;;;3.42;;
67548;SDS011;54382;53.524;49.326;2022-09-09T04:46:35;16.90;;;3.92;;
67548;SDS011;54382;53.524;49.326;2022-09-09T04:49:02;14.27;;;3.85;;
67548;SDS011;54382;53.524;49.326;2022-09-09T04:51:28;23.65;;;4.87;;
67548;SDS011;54382;53.524;49.326;2022-09-09T04:53:56;5.95;;;3.15;;
67548;SDS011;54382;53.524;49.326;2022-09-09T04:56:23;6.75;;;2.65;;
67548;SDS011;54382;53.524;49.326;2022-09-09T04:58:52;10.05;;;2.83;;
67548;SDS011;54382;53.524;49.326;2022-09-09T05:01:20;16.67;;;3.80;;
67548;SDS011;54382;53.524;49.326;2022-09-09T05:03:49;12.55;;;3.92;;
67548;SDS011;54382;53.524;49.326;2022-09-09T05:06:17;17.80;;;5.22;;
67548;SDS011;54382;53.524;49.326;2022-09-09T05:08:46;12.57;;;3.28;;
67548;SDS011;54382;53.524;49.326;2022-09-09T05:13:49;17.48;;;4.70;;
67548;SDS011;54382;53.524;49.326;2022-09-09T05:16:17;21.48;;;5.37;;
67548;SDS011;54382;53.524;49.326;2022-09-09T05:18:45;17.40;;;4.40;;
67548;SDS011;54382;53.524;49.326;2022-09-09T05:21:13;18.92;;;3.67;;
67548;SDS011;54382;53.524;49.326;2022-09-09T05:23:41;14.27;;;3.55;;
67548;SDS011;54382;53.524;49.326;2022-09-09T05:26:09;11.57;;;3.58;;
67548;SDS011;54382;53.524;49.326;2022-09-09T05:28:43;23.95;;;4.80;;
67548;SDS011;54382;53.524;49.326;2022-09-09T05:31:10;7.62;;;3.10;;
67548;SDS011;54382;53.524;49.326;2022-09-09T05:33:39;14.38;;;3.42;;
67548;SDS011;54382;53.524;49.326;2022-09-09T05:36:09;9.23;;;2.53;;
67548;SDS011;54382;53.524;49.326;2022-09-09T05:38:41;10.43;;;2.40;;
67548;SDS011;54382;53.524;49.326;2022-09-09T05:41:08;8.13;;;2.75;;
67548;SDS011;54382;53.524;49.326;2022-09-09T05:43:41;20.17;;;4.18;;
67548;SDS011;54382;53.524;49.326;2022-09-09T05:46:10;14.85;;;4.20;;
67548;SDS011;54382;53.524;49.326;2022-09-09T05:51:12;14.80;;;2.90;;
67548;SDS011;54382;53.524;49.326;2022-09-09T05:53:42;7.35;;;2.42;;
67548;SDS011;54382;53.524;49.326;2022-09-09T05:56:11;3.72;;;1.60;;
67548;SDS011;54382;53.524;49.326;2022-09-09T05:58:43;14.45;;;2.12;;
67548;SDS011;54382;53.524;49.326;2022-09-09T06:01:14;10.63;;;2.30;;
67548;SDS011;54382;53.524;49.326;2022-09-09T06:03:47;4.20;;;1.95;;
67548;SDS011;54382;53.524;49.326;2022-09-09T06:06:25;8.75;;;1.98;;
67548;SDS011;54382;53.524;49.326;2022-09-09T06:08:56;6.00;;;1.30;;
67548;SDS011;54382;53.524;49.326;2022-09-09T06:11:27;3.45;;;1.62;;
67548;SDS011;54382;53.524;49.326;2022-09-09T06:14:01;9.45;;;1.23;;
67548;SDS011;54382;53.524;49.326;2022-09-09T06:16:28;5.07;;;1.55;;
67548;SDS011;54382;53.524;49.326;2022-09-09T06:18:58;7.05;;;1.60;;
67548;SDS011;54382;53.524;49.326;2022-09-09T06:21:26;6.60;;;1.70;;
67548;SDS011;54382;53.524;49.326;2022-09-09T06:23:58;5.82;;;1.30;;
67548;SDS011;54382;53.524;49.326;2022-09-09T06:26:26;3.05;;;1.17;;
67548;SDS011;54382;53.524;49.326;2022-09-09T06:28:56;4.70;;;1.05;;
67548;SDS011;54382;53.524;49.326;2022-09-09T06:31:24;6.45;;;0.57;;
67548;SDS011;54382;53.524;49.326;2022-09-09T06:33:55;5.97;;;1.05;;
67548;SDS011;54382;53.524;49.326;2022-09-09T06:36:25;3.00;;;0.98;;
67548;SDS011;54382;53.524;49.326;2022-09-09T06:38:53;14.90;;;1.80;;
67548;SDS011;54382;53.524;49.326;2022-09-09T06:41:21;8.27;;;1.48;;
67548;SDS011;54382;53.524;49.326;2022-09-09T06:43:51;8.85;;;1.12;;
67548;SDS011;54382;53.524;49.326;2022-09-09T06:46:19;5.93;;;0.70;;
67548;SDS011;54382;53.524;49.326;2022-09-09T06:48:53;8.77;;;1.33;;
67548;SDS011;54382;53.524;49.326;2022-09-09T06:51:22;4.53;;;0.95;;
67548;SDS011;54382;53.524;49.326;2022-09-09T06:53:51;8.77;;;1.20;;
67548;SDS011;54382;53.524;49.326;2022-09-09T06:58:48;3.83;;;0.82;;
67548;SDS011;54382;53.524;49.326;2022-09-09T07:01:26;4.45;;;0.50;;
67548;SDS011;54382;53.524;49.326;2022-09-09T07:03:58;7.12;;;1.05;;
67548;SDS011;54382;53.524;49.326;2022-09-09T07:06:27;5.37;;;0.80;;
67548;SDS011;54382;53.524;49.326;2022-09-09T07:08:56;7.30;;;0.82;;
67548;SDS011;54382;53.524;49.326;2022-09-09T07:11:27;8.52;;;0.70;;
67548;SDS011;54382;53.524;49.326;2022-09-09T07:13:59;4.72;;;1.20;;
67548;SDS011;54382;53.524;49.326;2022-09-09T07:16:27;7.65;;;1.37;;
67548;SDS011;54382;53.524;49.326;2022-09-09T07:18:56;4.22;;;0.82;;
67548;SDS011;54382;53.524;49.326;2022-09-09T07:21:23;9.15;;;1.05;;
67548;SDS011;54382;53.524;49.326;2022-09-09T07:23:54;23.60;;;3.40;;
67548;SDS011;54382;53.524;49.326;2022-09-09T07:26:23;11.07;;;1.67;;
67548;SDS011;54382;53.524;49.326;2022-09-09T07:28:53;9.27;;;1.40;;
67548;SDS011;54382;53.524;49.326;2022-09-09T07:31:25;7.82;;;1.73;;
67548;SDS011;54382;53.524;49.326;2022-09-09T07:33:56;9.38;;;1.50;;
67548;SDS011;54382;53.524;49.326;2022-09-09T07:36:25;6.12;;;1.27;;
67548;SDS011;54382;53.524;49.326;2022-09-09T07:38:58;3.53;;;1.35;;
67548;SDS011;54382;53.524;49.326;2022-09-09T07:44:04;8.98;;;1.30;;
67548;SDS011;54382;53.524;49.326;2022-09-09T07:46:43;11.68;;;1.00;;
67548;SDS011;54382;53.524;49.326;2022-09-09T07:49:10;5.40;;;0.55;;
67548;SDS011;54382;53.524;49.326;2022-09-09T07:51:38;15.85;;;1.30;;
67548;SDS011;54382;53.524;49.326;2022-09-09T07:54:09;5.32;;;0.90;;
67548;SDS011;54382;53.524;49.326;2022-09-09T07:56:38;5.07;;;1.17;;
67548;SDS011;54382;53.524;49.326;2022-09-09T07:59:06;7.18;;;0.90;;
67548;SDS011;54382;53.524;49.326;2022-09-09T08:01:35;7.37;;;0.73;;
67548;SDS011;54382;53.524;49.326;2022-09-09T08:04:05;2.00;;;0.80;;
67548;SDS011;54382;53.524;49.326;2022-09-09T08:06:42;6.75;;;1.10;;
67548;SDS011;54382;53.524;49.326;2022-09-09T08:09:21;2.33;;;0.57;;
67548;SDS011;54382;53.524;49.326;2022-09-09T08:11:50;1.77;;;0.52;;
67548;SDS011;54382;53.524;49.326;2022-09-09T08:14:16;5.20;;;0.73;;
67548;SDS011;54382;53.524;49.326;2022-09-09T08:16:44;5.00;;;1.02;;
67548;SDS011;54382;53.524;49.326;2022-09-09T08:19:13;2.90;;;0.70;;
67548;SDS011;54382;53.524;49.326;2022-09-09T08:21:41;4.53;;;0.80;;
67548;SDS011;54382;53.524;49.326;2022-09-09T08:24:10;2.25;;;0.47;;
67548;SDS011;54382;53.524;49.326;2022-09-09T08:26:40;8.18;;;1.00;;
67548;SDS011;54382;53.524;49.326;2022-09-09T08:29:10;3.70;;;1.33;;
67548;SDS011;54382;53.524;49.326;2022-09-09T08:31:40;4.80;;;1.48;;
67548;SDS011;54382;53.524;49.326;2022-09-09T08:34:14;9.45;;;2.12;;
67548;SDS011;54382;53.524;49.326;2022-09-09T08:36:43;3.78;;;1.87;;
67548;SDS011;54382;53.524;49.326;2022-09-09T08:39:15;7.68;;;1.77;;
67548;SDS011;54382;53.524;49.326;2022-09-09T08:44:31;12.80;;;1.67;;
67548;SDS011;54382;53.524;49.326;2022-09-09T08:55:47;8.60;;;1.50;;
67548;SDS011;54382;53.524;49.326;2022-09-09T08:58:17;5.47;;;1.48;;
67548;SDS011;54382;53.524;49.326;2022-09-09T09:12:35;1.85;;;0.80;;
67548;SDS011;54382;53.524;49.326;2022-09-09T09:15:16;8.32;;;1.60;;
67548;SDS011;54382;53.524;49.326;2022-09-09T09:17:48;4.30;;;0.88;;
67548;SDS011;54382;53.524;49.326;2022-09-09T09:20:15;2.15;;;0.62;;
67548;SDS011;54382;53.524;49.326;2022-09-09T09:22:50;5.30;;;0.50;;
67548;SDS011;54382;53.524;49.326;2022-09-09T09:25:22;3.92;;;0.32;;
67548;SDS011;54382;53.524;49.326;2022-09-09T09:30:38;7.05;;;1.30;;
67548;SDS011;54382;53.524;49.326;2022-09-09T09:35:57;4.72;;;1.20;;
67548;SDS011;54382;53.524;49.326;2022-09-09T09:38:26;5.80;;;2.20;;
67548;SDS011;54382;53.524;49.326;2022-09-09T09:40:55;5.22;;;1.85;;
67548;SDS011;54382;53.524;49.326;2022-09-09T09:43:34;2.05;;;1.00;;
67548;SDS011;54382;53.524;49.326;2022-09-09T09:46:03;3.50;;;1.10;;
67548;SDS011;54382;53.524;49.326;2022-09-09T09:48:31;1.87;;;0.50;;
67548;SDS011;54382;53.524;49.326;2022-09-09T09:51:04;10.95;;;0.80;;
67548;SDS011;54382;53.524;49.326;2022-09-09T09:53:41;1.55;;;0.37;;
67548;SDS011;54382;53.524;49.326;2022-09-09T09:56:09;0.80;;;0.28;;
67548;SDS011;54382;53.524;49.326;2022-09-09T10:04:13;3.03;;;0.30;;
67548;SDS011;54382;53.524;49.326;2022-09-09T10:06:48;3.33;;;0.50;;
67548;SDS011;54382;53.524;49.326;2022-09-09T10:12:02;3.83;;;0.68;;
67548;SDS011;54382;53.524;49.326;2022-09-09T10:14:46;6.35;;;0.73;;
67548;SDS011;54382;53.524;49.326;2022-09-09T10:17:39;4.28;;;0.65;;
67548;SDS011;54382;53.524;49.326;2022-09-09T10:31:16;9.90;;;3.08;;
67548;SDS011;54382;53.524;49.326;2022-09-09T10:37:22;6.82;;;1.80;;
67548;SDS011;54382;53.524;49.326;2022-09-09T10:40:28;5.28;;;0.98;;
67548;SDS011;54382;53.524;49.326;2022-09-09T10:43:11;5.22;;;1.58;;
67548;SDS011;54382;53.524;49.326;2022-09-09T10:51:26;12.10;;;2.12;;
67548;SDS011;54382;53.524;49.326;2022-09-09T10:54:09;7.00;;;1.85;;
67548;SDS011;54382;53.524;49.326;2022-09-09T10:56:52;9.25;;;3.17;;
67548;SDS011;54382;53.524;49.326;2022-09-09T10:59:31;6.20;;;2.08;;
67548;SDS011;54382;53.524;49.326;2022-09-09T11:02:10;11.50;;;1.70;;
67548;SDS011;54382;53.524;49.326;2022-09-09T11:10:40;3.22;;;0.60;;
67548;SDS011;54382;53.524;49.326;2022-09-09T11:13:18;1.45;;;0.40;;
67548;SDS011;54382;53.524;49.326;2022-09-09T11:15:58;3.72;;;0.43;;
67548;SDS011;54382;53.524;49.326;2022-09-09T11:18:56;1.05;;;0.35;;
67548;SDS011;54382;53.524;49.326;2022-09-09T11:21:48;2.00;;;0.40;;
67548;SDS011;54382;53.524;49.326;2022-09-09T11:27:02;4.35;;;0.90;;
67548;SDS011;54382;53.524;49.326;2022-09-09T11:32:53;4.97;;;1.00;;
67548;SDS011;54382;53.524;49.326;2022-09-09T11:36:01;7.32;;;0.75;;
67548;SDS011;54382;53.524;49.326;2022-09-09T11:42:37;2.28;;;0.50;;
67548;SDS011;54382;53.524;49.326;2022-09-09T11:45:38;2.85;;;0.43;;
67548;SDS011;54382;53.524;49.326;2022-09-09T11:48:00;3.05;;;0.50;;
67548;SDS011;54382;53.524;49.326;2022-09-09T11:50:32;5.25;;;0.98;;
67548;SDS011;54382;53.524;49.326;2022-09-09T11:53:21;1.30;;;0.50;;
67548;SDS011;54382;53.524;49.326;2022-09-09T11:55:59;6.68;;;0.90;;
67548;SDS011;54382;53.524;49.326;2022-09-09T11:58:37;2.50;;;0.60;;
67548;SDS011;54382;53.524;49.326;2022-09-09T12:01:54;4.80;;;0.77;;
67548;SDS011;54382;53.524;49.326;2022-09-09T12:04:12;4.97;;;0.80;;
67548;SDS011;54382;53.524;49.326;2022-09-09T12:07:01;6.35;;;0.90;;
67548;SDS011;54382;53.524;49.326;2022-09-09T12:12:23;1.08;;;0.40;;
67548;SDS011;54382;53.524;49.326;2022-09-09T12:23:15;4.07;;;0.70;;
67548;SDS011;54382;53.524;49.326;2022-09-09T12:34:53;2.17;;;0.70;;
67548;SDS011;54382;53.524;49.326;2022-09-09T12:42:49;4.07;;;0.82;;
67548;SDS011;54382;53.524;49.326;2022-09-09T12:45:20;2.92;;;0.55;;
67548;SDS011;54382;53.524;49.326;2022-09-09T12:48:08;3.35;;;1.17;;
67548;SDS011;54382;53.524;49.326;2022-09-09T12:50:46;7.00;;;1.40;;
67548;SDS011;54382;53.524;49.326;2022-09-09T12:53:29;6.07;;;0.80;;
67548;SDS011;54382;53.524;49.326;2022-09-09T12:56:03;5.25;;;1.12;;
67548;SDS011;54382;53.524;49.326;2022-09-09T12:58:36;1.55;;;0.50;;
67548;SDS011;54382;53.524;49.326;2022-09-09T13:01:04;3.92;;;0.60;;
67548;SDS011;54382;53.524;49.326;2022-09-09T13:03:33;2.35;;;0.62;;
67548;SDS011;54382;53.524;49.326;2022-09-09T13:06:13;4.32;;;0.90;;
67548;SDS011;54382;53.524;49.326;2022-09-09T13:08:48;4.95;;;1.12;;
67548;SDS011;54382;53.524;49.326;2022-09-09T13:11:17;3.75;;;0.90;;
67548;SDS011;54382;53.524;49.326;2022-09-09T13:13:52;3.10;;;1.35;;
67548;SDS011;54382;53.524;49.326;2022-09-09T13:16:22;1.98;;;0.95;;
67548;SDS011;54382;53.524;49.326;2022-09-09T13:18:58;2.15;;;0.80;;
67548;SDS011;54382;53.524;49.326;2022-09-09T13:21:32;1.73;;;0.75;;
67548;SDS011;54382;53.524;49.326;2022-09-09T13:24:03;2.25;;;0.70;;
67548;SDS011;54382;53.524;49.326;2022-09-09T13:26:33;9.52;;;0.90;;
67548;SDS011;54382;53.524;49.326;2022-09-09T13:29:17;3.47;;;0.80;;
67548;SDS011;54382;53.524;49.326;2022-09-09T13:31:44;1.77;;;0.60;;
67548;SDS011;54382;53.524;49.326;2022-09-09T13:34:12;2.95;;;0.73;;
67548;SDS011;54382;53.524;49.326;2022-09-09T13:36:59;1.55;;;0.70;;
67548;SDS011;54382;53.524;49.326;2022-09-09T13:39:32;2.70;;;0.98;;
67548;SDS011;54382;53.524;49.326;2022-09-09T13:42:02;2.72;;;0.80;;
67548;SDS011;54382;53.524;49.326;2022-09-09T13:44:39;7.18;;;1.25;;
67548;SDS011;54382;53.524;49.326;2022-09-09T13:47:19;3.42;;;1.23;;
67548;SDS011;54382;53.524;49.326;2022-09-09T13:49:52;4.78;;;1.27;;
67548;SDS011;54382;53.524;49.326;2022-09-09T13:52:19;3.67;;;1.12;;
67548;SDS011;54382;53.524;49.326;2022-09-09T13:54:48;7.85;;;1.73;;
67548;SDS011;54382;53.524;49.326;2022-09-09T13:59:48;3.17;;;0.62;;
67548;SDS011;54382;53.524;49.326;2022-09-09T14:02:17;7.90;;;1.77;;
67548;SDS011;54382;53.524;49.326;2022-09-09T14:04:44;4.12;;;1.10;;
67548;SDS011;54382;53.524;49.326;2022-09-09T14:07:15;4.25;;;1.17;;
67548;SDS011;54382;53.524;49.326;2022-09-09T14:09:44;6.65;;;2.53;;
67548;SDS011;54382;53.524;49.326;2022-09-09T14:12:15;3.20;;;1.00;;
67548;SDS011;54382;53.524;49.326;2022-09-09T14:14:45;7.60;;;1.00;;
67548;SDS011;54382;53.524;49.326;2022-09-09T14:17:12;5.93;;;0.98;;
67548;SDS011;54382;53.524;49.326;2022-09-09T14:19:39;7.82;;;1.25;;
67548;SDS011;54382;53.524;49.326;2022-09-09T14:22:06;2.87;;;1.45;;
67548;SDS011;54382;53.524;49.326;2022-09-09T14:24:33;4.35;;;1.75;;
67548;SDS011;54382;53.524;49.326;2022-09-09T14:27:00;10.07;;;2.10;;
67548;SDS011;54382;53.524;49.326;2022-09-09T14:29:27;3.60;;;1.10;;
67548;SDS011;54382;53.524;49.326;2022-09-09T14:31:53;7.87;;;0.90;;
67548;SDS011;54382;53.524;49.326;2022-09-09T14:34:20;4.47;;;1.00;;
67548;SDS011;54382;53.524;49.326;2022-09-09T14:36:47;4.03;;;0.60;;
67548;SDS011;54382;53.524;49.326;2022-09-09T14:39:14;2.62;;;0.77;;
67548;SDS011;54382;53.524;49.326;2022-09-09T14:41:40;5.18;;;1.05;;
67548;SDS011;54382;53.524;49.326;2022-09-09T14:44:07;3.33;;;0.70;;
67548;SDS011;54382;53.524;49.326;2022-09-09T14:46:33;3.65;;;0.80;;
67548;SDS011;54382;53.524;49.326;2022-09-09T14:49:00;4.20;;;1.00;;
67548;SDS011;54382;53.524;49.326;2022-09-09T14:51:27;5.07;;;0.80;;
67548;SDS011;54382;53.524;49.326;2022-09-09T14:53:54;8.20;;;1.20;;
67548;SDS011;54382;53.524;49.326;2022-09-09T14:56:27;4.20;;;1.00;;
67548;SDS011;54382;53.524;49.326;2022-09-09T14:58:57;7.22;;;1.23;;
67548;SDS011;54382;53.524;49.326;2022-09-09T15:01:27;19.02;;;1.52;;
67548;SDS011;54382;53.524;49.326;2022-09-09T15:03:57;7.78;;;1.12;;
67548;SDS011;54382;53.524;49.326;2022-09-09T15:06:26;13.00;;;1.75;;
67548;SDS011;54382;53.524;49.326;2022-09-09T15:08:56;8.18;;;1.05;;
67548;SDS011;54382;53.524;49.326;2022-09-09T15:11:23;19.23;;;1.98;;
67548;SDS011;54382;53.524;49.326;2022-09-09T15:13:53;7.25;;;1.27;;
67548;SDS011;54382;53.524;49.326;2022-09-09T15:16:21;12.02;;;1.87;;
67548;SDS011;54382;53.524;49.326;2022-09-09T15:18:52;5.78;;;1.20;;
67548;SDS011;54382;53.524;49.326;2022-09-09T15:21:23;12.40;;;1.50;;
67548;SDS011;54382;53.524;49.326;2022-09-09T15:23:58;6.03;;;1.30;;
67548;SDS011;54382;53.524;49.326;2022-09-09T15:26:25;3.22;;;0.90;;
67548;SDS011;54382;53.524;49.326;2022-09-09T15:28:53;9.23;;;1.60;;
67548;SDS011;54382;53.524;49.326;2022-09-09T15:31:21;10.13;;;2.20;;
67548;SDS011;54382;53.524;49.326;2022-09-09T15:33:53;8.65;;;1.73;;
67548;SDS011;54382;53.524;49.326;2022-09-09T15:36:32;5.80;;;1.45;;
67548;SDS011;54382;53.524;49.326;2022-09-09T15:39:00;6.70;;;2.40;;
67548;SDS011;54382;53.524;49.326;2022-09-09T15:41:29;7.80;;;2.53;;
67548;SDS011;54382;53.524;49.326;2022-09-09T15:43:57;7.43;;;1.87;;
67548;SDS011;54382;53.524;49.326;2022-09-09T15:46:27;8.60;;;1.62;;
67548;SDS011;54382;53.524;49.326;2022-09-09T15:51:53;8.82;;;2.15;;
67548;SDS011;54382;53.524;49.326;2022-09-09T15:54:31;3.92;;;1.80;;
67548;SDS011;54382;53.524;49.326;2022-09-09T15:57:01;8.80;;;2.17;;
67548;SDS011;54382;53.524;49.326;2022-09-09T15:59:30;19.35;;;2.20;;
67548;SDS011;54382;53.524;49.326;2022-09-09T16:01:57;4.53;;;1.10;;
67548;SDS011;54382;53.524;49.326;2022-09-09T16:04:25;6.68;;;1.98;;
67548;SDS011;54382;53.524;49.326;2022-09-09T16:07:12;4.03;;;1.00;;
67548;SDS011;54382;53.524;49.326;2022-09-09T16:09:38;3.33;;;0.80;;
67548;SDS011;54382;53.524;49.326;2022-09-09T16:12:05;2.85;;;0.90;;
67548;SDS011;54382;53.524;49.326;2022-09-09T16:14:33;9.18;;;1.33;;
67548;SDS011;54382;53.524;49.326;2022-09-09T16:17:02;3.70;;;0.90;;
67548;SDS011;54382;53.524;49.326;2022-09-09T16:19:30;8.07;;;1.33;;
67548;SDS011;54382;53.524;49.326;2022-09-09T16:21:57;3.78;;;0.68;;
67548;SDS011;54382;53.524;49.326;2022-09-09T16:24:24;8.40;;;1.10;;
67548;SDS011;54382;53.524;49.326;2022-09-09T16:26:51;4.50;;;0.90;;
67548;SDS011;54382;53.524;49.326;2022-09-09T16:29:20;4.62;;;1.37;;
67548;SDS011;54382;53.524;49.326;2022-09-09T16:31:48;10.82;;;1.35;;
67548;SDS011;54382;53.524;49.326;2022-09-09T16:34:16;5.28;;;1.00;;
67548;SDS011;54382;53.524;49.326;2022-09-09T16:36:44;3.20;;;0.98;;
67548;SDS011;54382;53.524;49.326;2022-09-09T16:39:12;2.22;;;0.73;;
67548;SDS011;54382;53.524;49.326;2022-09-09T16:41:41;5.55;;;0.65;;
67548;SDS011;54382;53.524;49.326;2022-09-09T16:44:10;3.17;;;0.70;;
67548;SDS011;54382;53.524;49.326;2022-09-09T16:46:39;5.03;;;0.80;;
67548;SDS011;54382;53.524;49.326;2022-09-09T16:49:09;5.07;;;0.80;;
67548;SDS011;54382;53.524;49.326;2022-09-09T16:51:40;7.15;;;0.80;;
67548;SDS011;54382;53.524;49.326;2022-09-09T16:54:09;6.12;;;1.02;;
67548;SDS011;54382;53.524;49.326;2022-09-09T16:56:38;8.35;;;0.80;;
67548;SDS011;54382;53.524;49.326;2022-09-09T16:59:10;6.43;;;1.20;;
67548;SDS011;54382;53.524;49.326;2022-09-09T17:01:45;3.47;;;0.60;;
67548;SDS011;54382;53.524;49.326;2022-09-09T17:04:15;1.98;;;0.77;;
67548;SDS011;54382;53.524;49.326;2022-09-09T17:06:51;2.10;;;0.52;;
67548;SDS011;54382;53.524;49.326;2022-09-09T17:09:20;3.05;;;0.55;;
67548;SDS011;54382;53.524;49.326;2022-09-09T17:11:48;0.80;;;0.50;;
67548;SDS011;54382;53.524;49.326;2022-09-09T17:14:18;2.87;;;0.70;;
67548;SDS011;54382;53.524;49.326;2022-09-09T17:16:46;1.52;;;0.70;;
67548;SDS011;54382;53.524;49.326;2022-09-09T17:19:13;6.12;;;0.68;;
67548;SDS011;54382;53.524;49.326;2022-09-09T17:21:40;2.90;;;0.50;;
67548;SDS011;54382;53.524;49.326;2022-09-09T17:24:07;8.60;;;1.30;;
67548;SDS011;54382;53.524;49.326;2022-09-09T17:26:34;4.70;;;0.68;;